sensor_id;sensor_type;location;lat;lon;timestamp;temperature;humidity
71173;DHT22;58875;51.996;4.504;2023-06-26T00:01:34;23.87;60.89
71173;DHT22;58875;51.996;4.504;2023-06-26T00:04:04;23.67;61.91
71173;DHT22;58875;51.996;4.504;2023-06-26T00:06:29;23.51;63.03
71173;DHT22;58875;51.996;4.504;2023-06-26T00:08:58;23.41;63.60
71173;DHT22;58875;51.996;4.504;2023-06-26T00:11:24;23.24;64.37
71173;DHT22;58875;51.996;4.504;2023-06-26T00:13:51;23.12;64.93
71173;DHT22;58875;51.996;4.504;2023-06-26T00:16:17;23.08;65.45
71173;DHT22;58875;51.996;4.504;2023-06-26T00:18:48;22.84;65.70
71173;DHT22;58875;51.996;4.504;2023-06-26T00:21:51;22.64;65.89
71173;DHT22;58875;51.996;4.504;2023-06-26T00:24:23;22.46;66.16
71173;DHT22;58875;51.996;4.504;2023-06-26T00:26:51;22.33;66.63
71173;DHT22;58875;51.996;4.504;2023-06-26T00:29:25;22.25;66.68
71173;DHT22;58875;51.996;4.504;2023-06-26T00:31:51;22.10;67.23
71173;DHT22;58875;51.996;4.504;2023-06-26T00:34:16;21.99;67.82
71173;DHT22;58875;51.996;4.504;2023-06-26T00:36:42;21.81;68.81
71173;DHT22;58875;51.996;4.504;2023-06-26T00:39:11;21.61;69.53
71173;DHT22;58875;51.996;4.504;2023-06-26T00:41:37;21.57;69.81
71173;DHT22;58875;51.996;4.504;2023-06-26T00:44:06;21.47;70.18
71173;DHT22;58875;51.996;4.504;2023-06-26T00:46:32;21.40;70.50
71173;DHT22;58875;51.996;4.504;2023-06-26T00:49:00;21.40;70.72
71173;DHT22;58875;51.996;4.504;2023-06-26T00:51:28;21.38;70.82
71173;DHT22;58875;51.996;4.504;2023-06-26T00:53:55;21.33;71.05
71173;DHT22;58875;51.996;4.504;2023-06-26T00:56:22;21.31;71.02
71173;DHT22;58875;51.996;4.504;2023-06-26T00:58:48;21.27;71.48
71173;DHT22;58875;51.996;4.504;2023-06-26T01:01:14;21.38;71.30
71173;DHT22;58875;51.996;4.504;2023-06-26T01:03:44;21.31;71.50
71173;DHT22;58875;51.996;4.504;2023-06-26T01:06:14;21.38;71.47
71173;DHT22;58875;51.996;4.504;2023-06-26T01:08:41;21.38;71.79
71173;DHT22;58875;51.996;4.504;2023-06-26T01:11:15;21.27;71.99
71173;DHT22;58875;51.996;4.504;2023-06-26T01:13:42;21.22;72.15
71173;DHT22;58875;51.996;4.504;2023-06-26T01:16:11;21.24;72.39
71173;DHT22;58875;51.996;4.504;2023-06-26T01:18:39;21.16;72.68
71173;DHT22;58875;51.996;4.504;2023-06-26T01:21:09;21.22;72.65
71173;DHT22;58875;51.996;4.504;2023-06-26T01:23:47;21.20;72.73
71173;DHT22;58875;51.996;4.504;2023-06-26T01:26:22;21.10;73.02
71173;DHT22;58875;51.996;4.504;2023-06-26T01:28:53;21.13;73.11
71173;DHT22;58875;51.996;4.504;2023-06-26T01:31:44;21.13;73.34
71173;DHT22;58875;51.996;4.504;2023-06-26T01:34:18;21.10;73.50
71173;DHT22;58875;51.996;4.504;2023-06-26T01:36:54;21.08;73.50
71173;DHT22;58875;51.996;4.504;2023-06-26T01:39:22;21.00;73.88
71173;DHT22;58875;51.996;4.504;2023-06-26T01:41:47;21.02;74.07
71173;DHT22;58875;51.996;4.504;2023-06-26T01:44:29;20.99;74.00
71173;DHT22;58875;51.996;4.504;2023-06-26T01:47:14;20.90;74.28
71173;DHT22;58875;51.996;4.504;2023-06-26T01:57:30;21.07;73.63
71173;DHT22;58875;51.996;4.504;2023-06-26T01:59:57;21.11;73.41
71173;DHT22;58875;51.996;4.504;2023-06-26T02:02:24;21.14;73.19
71173;DHT22;58875;51.996;4.504;2023-06-26T02:04:53;21.08;73.18
71173;DHT22;58875;51.996;4.504;2023-06-26T02:07:18;21.03;73.36
71173;DHT22;58875;51.996;4.504;2023-06-26T02:09:47;21.00;73.11
71173;DHT22;58875;51.996;4.504;2023-06-26T02:12:13;21.04;72.90
71173;DHT22;58875;51.996;4.504;2023-06-26T02:14:45;21.17;72.58
71173;DHT22;58875;51.996;4.504;2023-06-26T02:17:10;21.20;71.90
71173;DHT22;58875;51.996;4.504;2023-06-26T02:19:44;21.08;72.14
71173;DHT22;58875;51.996;4.504;2023-06-26T02:22:22;21.06;72.00
71173;DHT22;58875;51.996;4.504;2023-06-26T02:24:47;20.97;71.86
71173;DHT22;58875;51.996;4.504;2023-06-26T02:27:13;20.93;71.57
71173;DHT22;58875;51.996;4.504;2023-06-26T02:29:59;21.04;71.29
71173;DHT22;58875;51.996;4.504;2023-06-26T02:32:32;21.14;70.81
71173;DHT22;58875;51.996;4.504;2023-06-26T02:34:57;21.04;70.68
71173;DHT22;58875;51.996;4.504;2023-06-26T02:37:36;20.99;70.90
71173;DHT22;58875;51.996;4.504;2023-06-26T02:40:05;21.11;70.50
71173;DHT22;58875;51.996;4.504;2023-06-26T02:42:55;21.02;70.52
71173;DHT22;58875;51.996;4.504;2023-06-26T02:45:23;20.94;70.65
71173;DHT22;58875;51.996;4.504;2023-06-26T02:47:58;20.89;70.53
71173;DHT22;58875;51.996;4.504;2023-06-26T02:50:26;20.87;70.58
71173;DHT22;58875;51.996;4.504;2023-06-26T02:52:52;20.69;70.93
71173;DHT22;58875;51.996;4.504;2023-06-26T02:55:21;20.72;70.85
71173;DHT22;58875;51.996;4.504;2023-06-26T02:57:46;20.68;70.72
71173;DHT22;58875;51.996;4.504;2023-06-26T03:00:12;20.61;70.85
71173;DHT22;58875;51.996;4.504;2023-06-26T03:02:38;20.44;71.68
71173;DHT22;58875;51.996;4.504;2023-06-26T03:05:04;20.46;71.83
71173;DHT22;58875;51.996;4.504;2023-06-26T03:07:30;20.46;71.86
71173;DHT22;58875;51.996;4.504;2023-06-26T03:09:55;20.38;72.28
71173;DHT22;58875;51.996;4.504;2023-06-26T03:12:21;20.41;72.24
71173;DHT22;58875;51.996;4.504;2023-06-26T03:14:49;20.48;72.19
71173;DHT22;58875;51.996;4.504;2023-06-26T03:20:07;20.38;72.46
71173;DHT22;58875;51.996;4.504;2023-06-26T03:22:34;20.42;72.50
71173;DHT22;58875;51.996;4.504;2023-06-26T03:25:01;20.32;72.22
71173;DHT22;58875;51.996;4.504;2023-06-26T03:27:26;20.29;72.57
71173;DHT22;58875;51.996;4.504;2023-06-26T03:29:52;20.34;72.33
71173;DHT22;58875;51.996;4.504;2023-06-26T03:32:18;20.36;72.49
71173;DHT22;58875;51.996;4.504;2023-06-26T03:34:46;20.38;72.31
71173;DHT22;58875;51.996;4.504;2023-06-26T03:37:12;20.35;72.29
71173;DHT22;58875;51.996;4.504;2023-06-26T03:39:37;20.32;72.43
71173;DHT22;58875;51.996;4.504;2023-06-26T03:42:03;20.28;72.29
71173;DHT22;58875;51.996;4.504;2023-06-26T03:44:29;20.29;72.54
71173;DHT22;58875;51.996;4.504;2023-06-26T03:46:55;20.21;72.50
71173;DHT22;58875;51.996;4.504;2023-06-26T03:49:21;20.17;72.70
71173;DHT22;58875;51.996;4.504;2023-06-26T03:51:46;20.13;72.83
71173;DHT22;58875;51.996;4.504;2023-06-26T03:54:12;20.13;72.61
71173;DHT22;58875;51.996;4.504;2023-06-26T03:56:37;20.13;72.97
71173;DHT22;58875;51.996;4.504;2023-06-26T03:59:03;20.08;72.84
71173;DHT22;58875;51.996;4.504;2023-06-26T04:01:28;20.00;73.19
71173;DHT22;58875;51.996;4.504;2023-06-26T04:03:54;19.93;73.32
71173;DHT22;58875;51.996;4.504;2023-06-26T04:06:29;20.01;73.58
71173;DHT22;58875;51.996;4.504;2023-06-26T04:09:07;20.07;73.02
71173;DHT22;58875;51.996;4.504;2023-06-26T04:11:33;20.03;72.84
71173;DHT22;58875;51.996;4.504;2023-06-26T04:13:58;20.04;72.84
71173;DHT22;58875;51.996;4.504;2023-06-26T04:16:24;20.04;72.85
71173;DHT22;58875;51.996;4.504;2023-06-26T04:18:51;20.01;73.06
71173;DHT22;58875;51.996;4.504;2023-06-26T04:21:17;20.00;72.88
71173;DHT22;58875;51.996;4.504;2023-06-26T04:23:43;19.95;73.21
71173;DHT22;58875;51.996;4.504;2023-06-26T04:26:09;19.90;73.01
71173;DHT22;58875;51.996;4.504;2023-06-26T04:28:39;19.83;72.68
71173;DHT22;58875;51.996;4.504;2023-06-26T04:31:05;19.87;73.19
71173;DHT22;58875;51.996;4.504;2023-06-26T04:33:30;19.95;72.45
71173;DHT22;58875;51.996;4.504;2023-06-26T04:35:56;20.04;72.48
71173;DHT22;58875;51.996;4.504;2023-06-26T04:38:27;20.20;71.81
71173;DHT22;58875;51.996;4.504;2023-06-26T04:40:53;20.24;71.38
71173;DHT22;58875;51.996;4.504;2023-06-26T04:43:28;20.35;71.04
71173;DHT22;58875;51.996;4.504;2023-06-26T04:45:56;20.22;71.36
71173;DHT22;58875;51.996;4.504;2023-06-26T04:48:22;20.21;71.41
71173;DHT22;58875;51.996;4.504;2023-06-26T04:51:11;20.21;71.76
71173;DHT22;58875;51.996;4.504;2023-06-26T04:53:53;20.29;71.44
71173;DHT22;58875;51.996;4.504;2023-06-26T04:56:21;20.24;71.57
71173;DHT22;58875;51.996;4.504;2023-06-26T04:59:08;20.21;71.65
71173;DHT22;58875;51.996;4.504;2023-06-26T05:01:44;20.11;72.16
71173;DHT22;58875;51.996;4.504;2023-06-26T05:04:15;20.01;72.73
71173;DHT22;58875;51.996;4.504;2023-06-26T05:06:41;20.00;73.41
71173;DHT22;58875;51.996;4.504;2023-06-26T05:09:07;20.00;73.23
71173;DHT22;58875;51.996;4.504;2023-06-26T05:11:33;19.98;73.37
71173;DHT22;58875;51.996;4.504;2023-06-26T05:13:58;20.07;73.03
71173;DHT22;58875;51.996;4.504;2023-06-26T05:16:27;20.10;72.91
71173;DHT22;58875;51.996;4.504;2023-06-26T05:18:53;20.14;72.90
71173;DHT22;58875;51.996;4.504;2023-06-26T05:21:23;20.24;72.85
71173;DHT22;58875;51.996;4.504;2023-06-26T05:23:55;20.25;72.36
71173;DHT22;58875;51.996;4.504;2023-06-26T05:26:28;20.35;72.55
71173;DHT22;58875;51.996;4.504;2023-06-26T05:28:54;20.51;71.78
71173;DHT22;58875;51.996;4.504;2023-06-26T05:31:19;20.48;70.49
71173;DHT22;58875;51.996;4.504;2023-06-26T05:33:46;20.52;69.54
71173;DHT22;58875;51.996;4.504;2023-06-26T05:36:13;20.57;69.11
71173;DHT22;58875;51.996;4.504;2023-06-26T05:38:42;20.41;68.02
71173;DHT22;58875;51.996;4.504;2023-06-26T05:41:08;20.39;68.07
71173;DHT22;58875;51.996;4.504;2023-06-26T05:43:34;20.32;67.81
71173;DHT22;58875;51.996;4.504;2023-06-26T05:45:59;20.21;68.15
71173;DHT22;58875;51.996;4.504;2023-06-26T05:48:25;20.05;67.86
71173;DHT22;58875;51.996;4.504;2023-06-26T05:50:51;19.91;67.94
71173;DHT22;58875;51.996;4.504;2023-06-26T05:53:16;19.84;67.91
71173;DHT22;58875;51.996;4.504;2023-06-26T05:55:42;19.94;67.23
71173;DHT22;58875;51.996;4.504;2023-06-26T05:58:11;20.05;66.78
71173;DHT22;58875;51.996;4.504;2023-06-26T06:00:41;20.05;66.47
71173;DHT22;58875;51.996;4.504;2023-06-26T06:03:11;20.08;66.50
71173;DHT22;58875;51.996;4.504;2023-06-26T06:05:37;20.13;66.48
71173;DHT22;58875;51.996;4.504;2023-06-26T06:08:03;20.20;65.30
71173;DHT22;58875;51.996;4.504;2023-06-26T06:10:31;20.24;65.66
71173;DHT22;58875;51.996;4.504;2023-06-26T06:12:56;20.34;65.32
71173;DHT22;58875;51.996;4.504;2023-06-26T06:15:22;20.44;64.96
71173;DHT22;58875;51.996;4.504;2023-06-26T06:17:52;20.46;64.52
71173;DHT22;58875;51.996;4.504;2023-06-26T06:20:21;20.55;63.70
71173;DHT22;58875;51.996;4.504;2023-06-26T06:22:47;20.53;64.43
71173;DHT22;58875;51.996;4.504;2023-06-26T06:25:16;20.51;64.69
71173;DHT22;58875;51.996;4.504;2023-06-26T06:27:42;20.39;64.28
71173;DHT22;58875;51.996;4.504;2023-06-26T06:30:09;20.36;64.33
71173;DHT22;58875;51.996;4.504;2023-06-26T06:32:35;20.36;64.04
71173;DHT22;58875;51.996;4.504;2023-06-26T06:35:03;20.22;64.57
71173;DHT22;58875;51.996;4.504;2023-06-26T06:37:36;20.38;64.52
71173;DHT22;58875;51.996;4.504;2023-06-26T06:40:01;20.44;64.10
71173;DHT22;58875;51.996;4.504;2023-06-26T06:42:28;20.49;64.26
71173;DHT22;58875;51.996;4.504;2023-06-26T06:44:54;20.68;64.57
71173;DHT22;58875;51.996;4.504;2023-06-26T06:47:20;21.03;64.04
71173;DHT22;58875;51.996;4.504;2023-06-26T06:49:45;20.86;63.37
71173;DHT22;58875;51.996;4.504;2023-06-26T06:52:11;20.79;62.96
71173;DHT22;58875;51.996;4.504;2023-06-26T06:55:02;20.77;63.81
71173;DHT22;58875;51.996;4.504;2023-06-26T06:57:34;20.56;64.33
71173;DHT22;58875;51.996;4.504;2023-06-26T07:00:06;20.51;64.37
71173;DHT22;58875;51.996;4.504;2023-06-26T07:02:37;20.51;63.87
71173;DHT22;58875;51.996;4.504;2023-06-26T07:05:09;20.15;64.16
71173;DHT22;58875;51.996;4.504;2023-06-26T07:07:37;20.55;63.15
71173;DHT22;58875;51.996;4.504;2023-06-26T07:10:08;20.57;63.21
71173;DHT22;58875;51.996;4.504;2023-06-26T07:12:35;21.00;62.41
71173;DHT22;58875;51.996;4.504;2023-06-26T07:15:05;21.10;60.96
71173;DHT22;58875;51.996;4.504;2023-06-26T07:17:34;20.96;62.12
71173;DHT22;58875;51.996;4.504;2023-06-26T07:20:01;21.00;62.25
71173;DHT22;58875;51.996;4.504;2023-06-26T07:22:28;21.27;61.36
71173;DHT22;58875;51.996;4.504;2023-06-26T07:24:54;21.34;61.61
71173;DHT22;58875;51.996;4.504;2023-06-26T07:27:19;20.92;62.11
71173;DHT22;58875;51.996;4.504;2023-06-26T07:29:45;21.17;61.96
71173;DHT22;58875;51.996;4.504;2023-06-26T07:32:11;21.58;61.84
71173;DHT22;58875;51.996;4.504;2023-06-26T07:34:37;21.68;60.66
71173;DHT22;58875;51.996;4.504;2023-06-26T07:37:03;21.66;60.16
71173;DHT22;58875;51.996;4.504;2023-06-26T07:39:28;21.65;60.23
71173;DHT22;58875;51.996;4.504;2023-06-26T07:41:54;21.73;60.22
71173;DHT22;58875;51.996;4.504;2023-06-26T07:44:19;21.98;60.14
71173;DHT22;58875;51.996;4.504;2023-06-26T07:46:45;21.99;59.37
71173;DHT22;58875;51.996;4.504;2023-06-26T07:49:13;22.05;59.40
71173;DHT22;58875;51.996;4.504;2023-06-26T07:51:48;22.19;58.90
71173;DHT22;58875;51.996;4.504;2023-06-26T07:54:13;21.99;57.74
71173;DHT22;58875;51.996;4.504;2023-06-26T07:56:56;21.55;59.81
71173;DHT22;58875;51.996;4.504;2023-06-26T07:59:23;21.64;59.83
71173;DHT22;58875;51.996;4.504;2023-06-26T08:01:54;21.75;58.78
71173;DHT22;58875;51.996;4.504;2023-06-26T08:04:21;21.48;59.67
71173;DHT22;58875;51.996;4.504;2023-06-26T08:06:53;21.75;59.88
71173;DHT22;58875;51.996;4.504;2023-06-26T08:09:22;21.92;58.41
71173;DHT22;58875;51.996;4.504;2023-06-26T08:11:48;21.53;59.68
71173;DHT22;58875;51.996;4.504;2023-06-26T08:14:13;21.58;58.70
71173;DHT22;58875;51.996;4.504;2023-06-26T08:16:40;21.84;58.58
71173;DHT22;58875;51.996;4.504;2023-06-26T08:19:06;22.17;57.39
71173;DHT22;58875;51.996;4.504;2023-06-26T08:22:00;22.29;58.10
71173;DHT22;58875;51.996;4.504;2023-06-26T08:24:26;22.29;57.50
71173;DHT22;58875;51.996;4.504;2023-06-26T08:27:12;22.29;56.91
71173;DHT22;58875;51.996;4.504;2023-06-26T08:29:40;22.40;57.52
71173;DHT22;58875;51.996;4.504;2023-06-26T08:34:31;22.06;57.98
71173;DHT22;58875;51.996;4.504;2023-06-26T08:36:57;21.86;58.26
71173;DHT22;58875;51.996;4.504;2023-06-26T08:39:22;21.59;60.46
71173;DHT22;58875;51.996;4.504;2023-06-26T08:41:48;21.62;59.67
71173;DHT22;58875;51.996;4.504;2023-06-26T08:44:46;21.79;58.82
71173;DHT22;58875;51.996;4.504;2023-06-26T08:47:12;22.15;58.28
71173;DHT22;58875;51.996;4.504;2023-06-26T08:50:12;21.92;57.60
71173;DHT22;58875;51.996;4.504;2023-06-26T08:55:10;21.92;57.09
71173;DHT22;58875;51.996;4.504;2023-06-26T08:57:37;21.81;55.91
71173;DHT22;58875;51.996;4.504;2023-06-26T09:00:03;22.05;55.97
71173;DHT22;58875;51.996;4.504;2023-06-26T09:02:31;22.06;56.52
71173;DHT22;58875;51.996;4.504;2023-06-26T09:05:00;22.33;56.23
71173;DHT22;58875;51.996;4.504;2023-06-26T09:07:29;22.25;56.34
71173;DHT22;58875;51.996;4.504;2023-06-26T09:09:55;22.26;55.70
71173;DHT22;58875;51.996;4.504;2023-06-26T09:12:21;22.46;54.22
71173;DHT22;58875;51.996;4.504;2023-06-26T09:14:47;22.42;55.17
71173;DHT22;58875;51.996;4.504;2023-06-26T09:17:13;22.59;56.51
71173;DHT22;58875;51.996;4.504;2023-06-26T09:19:46;22.64;54.56
71173;DHT22;58875;51.996;4.504;2023-06-26T09:22:14;22.57;56.03
71173;DHT22;58875;51.996;4.504;2023-06-26T09:24:44;22.12;57.09
71173;DHT22;58875;51.996;4.504;2023-06-26T09:27:13;22.05;57.41
71173;DHT22;58875;51.996;4.504;2023-06-26T09:29:38;21.58;58.69
71173;DHT22;58875;51.996;4.504;2023-06-26T09:32:04;21.26;60.07
71173;DHT22;58875;51.996;4.504;2023-06-26T09:34:40;21.24;59.98
71173;DHT22;58875;51.996;4.504;2023-06-26T09:37:06;21.14;59.82
71173;DHT22;58875;51.996;4.504;2023-06-26T09:39:32;21.24;60.48
71173;DHT22;58875;51.996;4.504;2023-06-26T09:41:58;21.33;60.14
71173;DHT22;58875;51.996;4.504;2023-06-26T09:44:24;21.66;59.41
71173;DHT22;58875;51.996;4.504;2023-06-26T09:46:50;21.79;59.13
71173;DHT22;58875;51.996;4.504;2023-06-26T09:49:15;21.65;59.42
71173;DHT22;58875;51.996;4.504;2023-06-26T09:51:42;21.65;59.01
71173;DHT22;58875;51.996;4.504;2023-06-26T09:54:08;21.41;59.77
71173;DHT22;58875;51.996;4.504;2023-06-26T09:56:35;21.50;59.63
71173;DHT22;58875;51.996;4.504;2023-06-26T09:59:02;21.74;58.05
71173;DHT22;58875;51.996;4.504;2023-06-26T10:01:30;22.28;57.62
71173;DHT22;58875;51.996;4.504;2023-06-26T10:03:57;22.23;57.60
71173;DHT22;58875;51.996;4.504;2023-06-26T10:06:34;22.01;55.71
71173;DHT22;58875;51.996;4.504;2023-06-26T10:09:02;22.05;57.30
71173;DHT22;58875;51.996;4.504;2023-06-26T10:11:41;22.30;56.59
71173;DHT22;58875;51.996;4.504;2023-06-26T10:14:11;22.35;55.71
71173;DHT22;58875;51.996;4.504;2023-06-26T10:16:40;22.02;55.85
71173;DHT22;58875;51.996;4.504;2023-06-26T10:19:11;21.84;57.21
71173;DHT22;58875;51.996;4.504;2023-06-26T10:21:39;22.37;57.11
71173;DHT22;58875;51.996;4.504;2023-06-26T10:24:06;22.83;55.46
71173;DHT22;58875;51.996;4.504;2023-06-26T10:26:37;22.86;55.69
71173;DHT22;58875;51.996;4.504;2023-06-26T10:29:05;23.25;52.93
71173;DHT22;58875;51.996;4.504;2023-06-26T10:31:33;23.00;51.74
71173;DHT22;58875;51.996;4.504;2023-06-26T10:34:00;22.76;52.10
71173;DHT22;58875;51.996;4.504;2023-06-26T10:36:31;22.40;52.56
71173;DHT22;58875;51.996;4.504;2023-06-26T10:39:03;22.10;52.63
71173;DHT22;58875;51.996;4.504;2023-06-26T10:41:36;21.88;54.28
71173;DHT22;58875;51.996;4.504;2023-06-26T10:46:27;22.71;51.55
71173;DHT22;58875;51.996;4.504;2023-06-26T10:48:59;22.43;52.87
71173;DHT22;58875;51.996;4.504;2023-06-26T10:51:26;22.19;53.28
71173;DHT22;58875;51.996;4.504;2023-06-26T10:53:56;22.56;54.60
71173;DHT22;58875;51.996;4.504;2023-06-26T10:56:41;22.64;52.70
71173;DHT22;58875;51.996;4.504;2023-06-26T11:01:41;22.70;52.43
71173;DHT22;58875;51.996;4.504;2023-06-26T11:04:10;22.84;52.35
71173;DHT22;58875;51.996;4.504;2023-06-26T11:06:37;22.80;51.09
71173;DHT22;58875;51.996;4.504;2023-06-26T11:09:09;22.35;50.38
71173;DHT22;58875;51.996;4.504;2023-06-26T11:14:19;22.57;52.13
71173;DHT22;58875;51.996;4.504;2023-06-26T11:16:45;22.45;51.62
71173;DHT22;58875;51.996;4.504;2023-06-26T11:19:11;22.91;52.32
71173;DHT22;58875;51.996;4.504;2023-06-26T11:21:38;22.91;51.78
71173;DHT22;58875;51.996;4.504;2023-06-26T11:24:07;22.80;52.44
71173;DHT22;58875;51.996;4.504;2023-06-26T11:29:05;22.45;52.96
71173;DHT22;58875;51.996;4.504;2023-06-26T11:31:33;22.71;52.72
71173;DHT22;58875;51.996;4.504;2023-06-26T11:34:02;22.90;51.57
71173;DHT22;58875;51.996;4.504;2023-06-26T11:36:29;22.98;52.49
71173;DHT22;58875;51.996;4.504;2023-06-26T11:38:58;22.95;51.75
71173;DHT22;58875;51.996;4.504;2023-06-26T11:41:27;22.93;51.60
71173;DHT22;58875;51.996;4.504;2023-06-26T11:43:54;22.73;51.84
71173;DHT22;58875;51.996;4.504;2023-06-26T11:46:21;23.01;51.30
71173;DHT22;58875;51.996;4.504;2023-06-26T11:48:47;23.28;47.59
71173;DHT22;58875;51.996;4.504;2023-06-26T11:51:14;23.29;48.25
71173;DHT22;58875;51.996;4.504;2023-06-26T11:53:44;23.44;47.76
71173;DHT22;58875;51.996;4.504;2023-06-26T11:56:12;23.61;46.05
71173;DHT22;58875;51.996;4.504;2023-06-26T12:01:41;23.75;46.79
71173;DHT22;58875;51.996;4.504;2023-06-26T12:04:10;23.39;48.26
71173;DHT22;58875;51.996;4.504;2023-06-26T12:06:41;23.26;48.59
71173;DHT22;58875;51.996;4.504;2023-06-26T12:09:10;22.97;48.77
71173;DHT22;58875;51.996;4.504;2023-06-26T12:11:41;22.98;49.66
71173;DHT22;58875;51.996;4.504;2023-06-26T12:14:08;23.31;49.55
71173;DHT22;58875;51.996;4.504;2023-06-26T12:16:35;22.91;47.95
71173;DHT22;58875;51.996;4.504;2023-06-26T12:19:04;22.66;50.41
71173;DHT22;58875;51.996;4.504;2023-06-26T12:24:13;22.61;50.44
71173;DHT22;58875;51.996;4.504;2023-06-26T12:26:44;22.30;51.01
71173;DHT22;58875;51.996;4.504;2023-06-26T12:29:12;22.39;51.73
71173;DHT22;58875;51.996;4.504;2023-06-26T12:31:44;22.74;50.27
71173;DHT22;58875;51.996;4.504;2023-06-26T12:34:12;22.95;50.90
71173;DHT22;58875;51.996;4.504;2023-06-26T12:36:44;23.39;48.22
71173;DHT22;58875;51.996;4.504;2023-06-26T12:39:11;23.15;48.00
71173;DHT22;58875;51.996;4.504;2023-06-26T12:41:54;23.14;49.17
71173;DHT22;58875;51.996;4.504;2023-06-26T12:44:24;23.39;49.16
71173;DHT22;58875;51.996;4.504;2023-06-26T12:46:54;23.46;49.32
71173;DHT22;58875;51.996;4.504;2023-06-26T12:49:20;23.48;50.69
71173;DHT22;58875;51.996;4.504;2023-06-26T12:51:53;23.54;49.16
71173;DHT22;58875;51.996;4.504;2023-06-26T12:54:19;23.56;47.99
71173;DHT22;58875;51.996;4.504;2023-06-26T12:56:45;23.10;49.39
71173;DHT22;58875;51.996;4.504;2023-06-26T12:59:10;22.91;48.83
71173;DHT22;58875;51.996;4.504;2023-06-26T13:01:36;22.67;48.95
71173;DHT22;58875;51.996;4.504;2023-06-26T13:04:02;22.57;51.02
71173;DHT22;58875;51.996;4.504;2023-06-26T13:06:28;22.45;51.72
71173;DHT22;58875;51.996;4.504;2023-06-26T13:08:54;22.63;52.37
71173;DHT22;58875;51.996;4.504;2023-06-26T13:11:19;22.88;48.68
71173;DHT22;58875;51.996;4.504;2023-06-26T13:13:45;22.87;48.30
71173;DHT22;58875;51.996;4.504;2023-06-26T13:16:10;22.84;48.94
71173;DHT22;58875;51.996;4.504;2023-06-26T13:18:36;22.67;50.18
71173;DHT22;58875;51.996;4.504;2023-06-26T13:21:01;22.93;51.39
71173;DHT22;58875;51.996;4.504;2023-06-26T13:23:27;23.19;49.38
71173;DHT22;58875;51.996;4.504;2023-06-26T13:25:53;23.25;47.72
71173;DHT22;58875;51.996;4.504;2023-06-26T13:28:19;23.35;49.73
71173;DHT22;58875;51.996;4.504;2023-06-26T13:30:44;23.37;48.85
71173;DHT22;58875;51.996;4.504;2023-06-26T13:33:10;23.56;48.94
71173;DHT22;58875;51.996;4.504;2023-06-26T13:35:36;23.38;47.78
71173;DHT22;58875;51.996;4.504;2023-06-26T13:38:02;23.22;49.30
71173;DHT22;58875;51.996;4.504;2023-06-26T13:40:27;22.94;48.03
71173;DHT22;58875;51.996;4.504;2023-06-26T13:42:53;23.18;48.94
71173;DHT22;58875;51.996;4.504;2023-06-26T13:45:19;23.31;47.66
71173;DHT22;58875;51.996;4.504;2023-06-26T13:47:44;23.28;48.92
71173;DHT22;58875;51.996;4.504;2023-06-26T13:50:10;23.24;46.96
71173;DHT22;58875;51.996;4.504;2023-06-26T13:52:36;23.31;47.72
71173;DHT22;58875;51.996;4.504;2023-06-26T13:55:02;23.15;47.81
71173;DHT22;58875;51.996;4.504;2023-06-26T13:57:31;23.01;47.52
71173;DHT22;58875;51.996;4.504;2023-06-26T13:59:57;23.11;48.07
71173;DHT22;58875;51.996;4.504;2023-06-26T14:02:23;23.03;48.40
71173;DHT22;58875;51.996;4.504;2023-06-26T14:04:52;23.07;48.45
71173;DHT22;58875;51.996;4.504;2023-06-26T14:07:17;23.18;46.80
71173;DHT22;58875;51.996;4.504;2023-06-26T14:09:49;23.26;47.69
71173;DHT22;58875;51.996;4.504;2023-06-26T14:12:14;23.32;47.72
71173;DHT22;58875;51.996;4.504;2023-06-26T14:14:40;23.42;47.89
71173;DHT22;58875;51.996;4.504;2023-06-26T14:17:05;23.79;44.54
71173;DHT22;58875;51.996;4.504;2023-06-26T14:19:31;23.65;43.64
71173;DHT22;58875;51.996;4.504;2023-06-26T14:21:57;23.35;46.34
71173;DHT22;58875;51.996;4.504;2023-06-26T14:24:22;23.21;44.74
71173;DHT22;58875;51.996;4.504;2023-06-26T14:26:48;23.29;46.02
71173;DHT22;58875;51.996;4.504;2023-06-26T14:29:13;23.45;46.49
71173;DHT22;58875;51.996;4.504;2023-06-26T14:31:43;23.51;46.59
71173;DHT22;58875;51.996;4.504;2023-06-26T14:34:08;23.70;47.91
71173;DHT22;58875;51.996;4.504;2023-06-26T14:36:35;24.02;46.56
71173;DHT22;58875;51.996;4.504;2023-06-26T14:39:00;23.38;47.09
71173;DHT22;58875;51.996;4.504;2023-06-26T14:41:26;23.61;48.84
71173;DHT22;58875;51.996;4.504;2023-06-26T14:43:52;23.89;45.97
71173;DHT22;58875;51.996;4.504;2023-06-26T14:46:18;24.02;46.12
71173;DHT22;58875;51.996;4.504;2023-06-26T14:48:44;23.82;46.74
71173;DHT22;58875;51.996;4.504;2023-06-26T14:51:13;23.95;45.60
71173;DHT22;58875;51.996;4.504;2023-06-26T14:53:38;23.97;47.11
71173;DHT22;58875;51.996;4.504;2023-06-26T14:56:06;24.07;46.29
71173;DHT22;58875;51.996;4.504;2023-06-26T14:58:33;23.90;45.70
71173;DHT22;58875;51.996;4.504;2023-06-26T15:01:01;23.69;46.10
71173;DHT22;58875;51.996;4.504;2023-06-26T15:03:27;23.35;47.46
71173;DHT22;58875;51.996;4.504;2023-06-26T15:05:52;23.48;47.74
71173;DHT22;58875;51.996;4.504;2023-06-26T15:08:18;23.79;47.45
71173;DHT22;58875;51.996;4.504;2023-06-26T15:10:43;24.10;46.36
71173;DHT22;58875;51.996;4.504;2023-06-26T15:13:09;23.61;46.73
71173;DHT22;58875;51.996;4.504;2023-06-26T15:15:34;23.29;47.89
71173;DHT22;58875;51.996;4.504;2023-06-26T15:18:00;23.46;48.65
71173;DHT22;58875;51.996;4.504;2023-06-26T15:20:25;23.14;47.92
71173;DHT22;58875;51.996;4.504;2023-06-26T15:22:51;23.03;49.78
71173;DHT22;58875;51.996;4.504;2023-06-26T15:25:16;23.38;47.84
71173;DHT22;58875;51.996;4.504;2023-06-26T15:27:42;23.65;47.63
71173;DHT22;58875;51.996;4.504;2023-06-26T15:30:08;23.62;46.77
71173;DHT22;58875;51.996;4.504;2023-06-26T15:32:33;23.80;47.91
71173;DHT22;58875;51.996;4.504;2023-06-26T15:35:00;23.75;47.05
71173;DHT22;58875;51.996;4.504;2023-06-26T15:37:25;23.59;47.18
71173;DHT22;58875;51.996;4.504;2023-06-26T15:39:51;23.29;47.83
71173;DHT22;58875;51.996;4.504;2023-06-26T15:42:16;23.10;49.02
71173;DHT22;58875;51.996;4.504;2023-06-26T15:44:42;23.21;48.61
71173;DHT22;58875;51.996;4.504;2023-06-26T15:47:07;23.17;49.42
71173;DHT22;58875;51.996;4.504;2023-06-26T15:49:33;23.19;49.72
71173;DHT22;58875;51.996;4.504;2023-06-26T15:51:59;22.71;51.07
71173;DHT22;58875;51.996;4.504;2023-06-26T15:54:25;22.87;51.35
71173;DHT22;58875;51.996;4.504;2023-06-26T15:56:50;23.24;50.17
71173;DHT22;58875;51.996;4.504;2023-06-26T15:59:16;23.46;49.77
71173;DHT22;58875;51.996;4.504;2023-06-26T16:01:44;23.34;48.48
71173;DHT22;58875;51.996;4.504;2023-06-26T16:04:11;22.78;50.01
71173;DHT22;58875;51.996;4.504;2023-06-26T16:06:37;22.63;50.98
71173;DHT22;58875;51.996;4.504;2023-06-26T16:09:03;22.70;50.73